Date,TemperatureHighF,TemperatureAvgF,TemperatureLowF,DewpointHighF,DewpointAvgF,DewpointLowF,HumidityHigh,HumidityAvg,HumidityLow,PressureMaxIn,PressureMinIn,WindSpeedMaxMPH,WindSpeedAvgMPH,GustSpeedMaxMPH,PrecipitationSumIn
2012-1-1,70,48,31,50,33,16,96,62,25,30.15,29.83,15,2,15,0.00
2012-1-2,52,38,26,17,8,1,47,29,19,30.06,29.95,10,2,10,0.00
2012-1-3,38,26,17,6,0,-6,46,32,21,30.30,30.03,10,1,10,0.00
2012-1-4,49,30,16,10,4,0,57,35,19,30.33,30.01,12,1,12,0.00
2012-1-5,60,39,24,21,13,6,54,36,19,30.09,30.01,8,0,8,0.00
2012-1-6,72,49,31,25,18,14,54,31,14,30.06,29.95,9,1,9,0.00
2012-1-7,75,52,35,36,27,18,60,39,22,30.06,29.92,12,1,12,0.00
2012-1-8,60,50,38,35,26,20,69,40,25,30.27,30.06,10,0,10,0.00
2012-1-9,48,42,39,42,38,26,98,87,41,30.24,30.03,6,0,6,0.08
2012-1-10,68,47,40,44,34,22,98,67,23,30.09,30.01,5,0,5,0.00
2012-1-11,48,45,40,47,39,33,98,81,62,30.01,29.56,6,0,6,1.02
2012-1-12,61,49,37,46,39,21,98,71,31,29.65,29.50,21,2,21,0.00
2012-1-13,51,36,27,28,11,6,48,35,27,30.03,29.50,15,2,15,0.00
2012-1-14,48,33,23,17,11,6,60,40,24,30.18,30.03,10,0,10,0.00
2012-1-15,52,35,24,28,19,11,94,56,27,30.51,30.09,8,0,8,0.00
2012-1-16,55,36,22,24,20,13,91,57,28,30.54,30.30,12,1,12,0.00
2012-1-17,62,53,41,54,37,22,95,57,41,30.30,29.86,19,4,19,0.00
2012-1-18,57,45,31,51,20,10,85,40,20,30.12,29.86,15,1,15,0.00
2012-1-19,52,37,21,20,13,7,69,39,27,30.18,30.03,11,1,11,0.00
2012-1-20,59,42,27,44,30,20,98,67,26,30.15,30.01,6,0,6,0.20
2012-1-21,50,45,37,47,42,28,98,91,70,30.18,29.86,10,0,10,0.12
2012-1-22,37,34,32,34,26,20,98,74,58,30.36,30.18,13,1,13,0.00
2012-1-23,43,38,34,42,37,34,98,97,84,30.27,30.01,0,0,0,0.12
2012-1-24,69,48,36,46,39,27,98,77,25,30.21,30.01,8,0,8,0.00
2012-1-25,68,45,31,38,29,20,98,63,21,30.30,30.15,9,0,9,0.00
2012-1-26,49,44,38,34,32,28,77,64,45,30.18,30.12,0,0,0,0.00
2012-1-27,69,56,35,55,31,21,79,40,23,30.03,29.62,13,2,13,0.00
2012-1-28,67,44,28,33,24,12,98,52,23,30.21,30.01,11,1,11,0.00
2012-1-29,58,40,23,23,11,2,76,37,15,30.33,30.21,11,1,11,0.00
2012-1-30,66,44,26,22,13,3,56,31,15,30.39,30.21,10,1,10,0.00
2012-1-31,74,52,32,25,19,12,53,28,16,30.33,30.18,12,1,12,0.00
2012-2-1,73,56,50,52,32,19,97,48,23,30.24,30.03,11,2,11,0.08
2012-2-2,74,56,40,55,37,17,98,57,22,30.33,29.98,10,1,10,0.04
2012-2-3,66,44,31,32,25,16,96,51,20,30.48,30.33,10,0,10,0.00
2012-2-4,55,45,35,48,35,22,98,70,36,30.33,30.03,10,0,10,0.08
2012-2-5,48,40,30,47,35,26,98,85,60,30.24,29.98,8,0,8,0.12
2012-2-6,53,38,30,38,27,20,98,70,29,30.27,30.12,8,0,8,0.00
2012-2-7,65,41,27,33,24,13,98,59,16,30.18,30.12,6,0,6,0.00
2012-2-8,52,37,27,32,24,17,93,63,36,30.21,30.09,8,0,8,0.00
2012-2-9,59,41,28,24,18,13,78,42,22,30.30,30.15,6,0,6,0.00
2012-2-10,50,38,25,30,25,21,89,62,38,30.21,29.89,10,0,10,0.00
2012-2-11,52,37,22,33,13,-8,80,41,21,30.06,29.80,13,3,13,0.00
2012-2-12,46,30,17,7,-1,-10,39,26,19,30.24,30.06,11,2,11,0.00
2012-2-13,60,37,18,15,8,1,65,33,14,30.27,30.12,8,0,8,0.00
2012-2-14,58,47,40,30,19,11,57,33,27,30.12,30.01,14,2,15,0.00
2012-2-15,69,47,29,36,25,15,98,51,17,30.33,30.09,6,0,6,0.00
2012-2-16,48,44,39,48,23,21,98,45,37,30.30,30.06,0,0,0,0.08
2012-2-17,70,48,38,48,38,19,98,75,20,30.18,29.21,4,0,5,0.00
2012-2-18,70,52,37,32,24,18,65,37,17,30.16,29.98,10,1,10,0.00
2012-2-19,51,39,32,34,28,21,93,67,32,30.01,29.80,13,1,13,0.24
2012-2-20,58,41,26,31,21,13,98,51,22,30.34,29.98,6,0,6,0.28
2012-2-21,62,42,24,33,25,19,92,56,25,30.31,30.01,14,2,14,0.00
2012-2-22,72,59,42,49,33,24,98,42,19,29.95,29.60,14,2,14,0.12
2012-2-23,78,57,40,52,42,36,98,64,25,29.72,29.60,14,1,14,0.04
2012-2-24,82,65,43,59,40,13,89,41,26,29.92,29.51,23,4,23,0.20
2012-2-25,57,42,31,16,10,4,34,27,18,30.34,29.92,13,2,13,0.00
2012-2-26,62,39,22,19,13,6,73,39,16,30.51,30.34,10,0,10,0.00
2012-2-27,60,43,29,46,28,13,93,57,36,30.45,30.31,8,0,8,0.00
2012-2-28,75,54,35,47,28,13,98,50,13,30.42,30.31,10,1,10,0.00
2012-2-29,68,58,46,54,43,24,93,60,38,30.31,29.83,15,2,15,0.08
2012-3-1,82,65,45,58,35,12,97,41,12,29.95,29.78,18,2,18,0.00
2012-3-2,61,48,38,51,37,20,98,67,35,30.04,29.75,9,0,9,0.08
2012-3-3,68,54,47,55,38,22,98,64,23,29.80,29.63,7,0,8,0.31
2012-3-4,60,45,28,32,16,4,63,33,19,30.01,29.69,13,1,13,0.00
2012-3-5,56,40,27,23,14,4,73,36,18,30.48,29.89,13,2,13,0.00
2012-3-6,64,40,22,20,14,8,82,40,16,30.63,30.48,10,1,10,0.00
2012-3-7,74,52,30,41,28,16,83,43,22,30.63,30.45,13,2,13,0.00
2012-3-8,74,62,53,50,42,37,75,51,29,30.45,30.13,13,2,13,0.00
2012-3-9,67,54,36,57,33,13,98,51,15,30.34,30.10,8,1,8,0.08
2012-3-10,66,46,32,22,15,7,61,31,15,30.51,30.34,10,1,10,0.00
2012-3-11,72,46,28,28,21,12,81,42,14,30.60,30.42,10,0,10,0.00
2012-3-12,76,57,39,40,32,19,61,40,25,30.45,30.25,14,2,14,0.00
2012-3-13,86,67,56,48,43,35,63,44,21,30.28,30.13,12,1,12,0.00
2012-3-14,92,68,52,58,41,26,98,47,12,30.28,30.19,10,0,10,0.00
2012-3-15,87,65,52,49,41,32,82,47,18,30.31,30.22,10,1,10,0.00
2012-3-16,87,64,50,60,46,34,98,61,18,30.25,30.13,9,0,9,0.31
2012-3-17,86,66,54,62,51,36,98,68,20,30.31,30.19,8,0,8,0.00
2012-3-18,75,60,54,59,53,42,98,79,35,30.37,30.25,6,0,6,0.00
2012-3-19,86,64,50,60,50,40,98,68,21,30.31,30.16,8,0,8,0.00
2012-3-20,90,67,54,61,52,39,98,69,19,30.31,30.16,10,0,10,0.51
2012-3-21,85,66,56,63,53,43,98,69,29,30.37,30.22,8,0,8,0.04
2012-3-22,87,67,56,62,52,40,98,67,22,30.31,30.19,10,1,10,0.00
2012-3-23,90,69,56,62,51,39,98,61,19,30.22,30.04,11,1,11,0.24
2012-3-24,81,64,53,65,56,40,98,82,34,30.04,29.80,15,0,15,0.71
2012-3-25,69,58,54,57,52,41,98,83,41,29.86,29.75,6,0,6,0.55
2012-3-26,81,63,50,56,36,11,98,47,17,30.19,29.86,10,1,10,0.00
2012-3-27,72,52,38,28,17,10,48,26,14,30.37,30.19,9,1,9,0.00
2012-3-28,83,64,47,46,36,19,58,38,22,30.25,29.89,18,3,18,0.00
2012-3-29,89,69,53,45,33,18,61,31,10,30.01,29.86,11,1,11,0.00
2012-3-30,83,64,50,48,37,28,63,39,20,30.10,29.89,9,0,9,0.00
2012-3-31,84,66,56,60,47,32,96,58,21,29.89,29.78,8,0,8,0.08
2012-4-1,75,61,49,53,38,31,87,47,22,29.95,29.75,10,1,10,0.00
2012-4-2,84,67,52,49,39,30,65,39,20,30.04,29.72,13,1,13,0.00
2012-4-3,85,63,43,57,39,27,83,47,18,30.07,29.83,15,1,15,0.08
2012-4-4,94,70,59,60,47,35,91,49,17,29.89,29.69,7,0,7,0.00
2012-4-5,69,59,51,56,34,22,82,42,22,29.89,29.72,11,1,11,0.00
2012-4-6,72,53,41,38,26,14,74,39,14,30.16,29.86,11,1,11,0.00
2012-4-7,79,53,34,33,24,14,83,39,12,30.31,30.13,8,0,8,0.12
2012-4-8,86,60,39,32,24,17,69,31,11,30.16,29.95,14,0,14,0.00
2012-4-9,79,63,44,31,20,14,48,21,13,30.10,29.86,15,1,15,0.00
2012-4-10,79,60,43,32,20,12,54,23,13,29.98,29.80,14,1,17,0.00
2012-4-11,63,48,35,20,14,6,45,27,16,30.19,29.86,8,1,8,0.00
2012-4-12,73,48,31,26,19,13,65,37,14,30.25,30.13,8,0,8,0.00
2012-4-13,78,52,38,32,25,15,72,40,13,30.31,30.16,8,0,8,0.00
2012-4-14,81,60,41,36,30,23,76,38,14,30.34,30.19,13,1,14,0.00
2012-4-15,87,69,56,51,43,31,76,42,19,30.25,30.19,11,1,11,0.00
2012-4-16,92,73,62,51,44,37,62,37,18,30.25,30.13,11,1,11,0.00
2012-4-17,91,70,59,54,42,32,82,41,17,30.28,30.16,8,0,8,0.00
2012-4-18,61,55,51,50,42,33,84,63,36,30.25,30.13,7,0,7,0.08
2012-4-19,67,56,51,47,42,34,79,61,33,30.16,30.07,7,0,7,0.00
2012-4-20,77,62,53,51,45,37,85,59,26,30.07,29.92,6,0,6,0.00
2012-4-21,87,66,54,58,48,35,91,61,19,29.92,29.75,9,0,9,0.16
2012-4-22,59,52,46,56,48,42,92,86,71,29.80,29.57,10,0,10,0.39
2012-4-23,53,46,39,44,27,19,92,51,27,29.72,29.54,8,0,8,0.00
2012-4-24,71,50,34,29,20,14,69,35,14,29.86,29.69,13,0,13,0.00
2012-4-25,74,55,42,48,36,27,77,51,22,30.01,29.83,10,0,10,0.00
2012-4-26,84,63,52,56,50,40,93,67,22,29.95,29.80,11,0,11,0.35
2012-4-27,85,65,53,56,42,29,86,48,16,30.16,29.89,5,0,5,0.00
2012-4-28,59,55,52,40,33,27,58,43,31,30.25,30.13,8,0,8,0.00
2012-4-29,85,66,52,51,43,36,76,47,22,30.25,30.10,8,0,8,0.00
2012-4-30,80,69,61,61,52,46,93,57,32,30.28,30.13,7,0,7,0.04
2012-5-1,94,74,67,57,51,42,66,46,19,30.19,30.10,9,1,9,0.00
2012-5-2,98,79,68,58,49,41,71,38,16,30.19,30.10,8,0,8,0.00
2012-5-3,97,77,63,59,50,41,83,43,17,30.19,30.10,6,0,6,0.00
2012-5-4,98,75,62,60,48,36,81,45,16,30.13,29.98,6,0,6,0.00
2012-5-5,95,71,63,64,54,40,87,61,17,30.01,29.89,6,0,6,0.39
2012-5-6,83,68,62,63,53,40,87,60,25,30.10,29.98,8,0,8,0.00
2012-5-7,84,69,60,59,46,36,90,49,21,30.13,30.01,8,0,8,0.00
2012-5-8,77,69,64,63,50,44,88,54,33,30.07,29.89,8,0,8,0.08
2012-5-9,74,64,56,65,57,47,93,81,40,29.95,29.75,0,0,0,0.59
2012-5-10,80,61,50,54,40,29,94,55,20,30.04,29.78,6,0,6,0.00
2012-5-11,84,59,43,41,31,18,75,42,11,30.28,30.04,8,0,8,0.04
2012-5-12,82,62,46,48,36,24,82,44,14,30.37,30.25,8,0,8,0.00
2012-5-13,73,63,54,61,49,40,92,63,31,30.31,30.16,8,0,8,0.47
2012-5-14,71,65,62,63,58,51,93,79,51,30.16,29.95,10,0,10,0.94
2012-5-15,87,68,60,62,54,44,93,67,24,30.07,29.98,0,0,0,0.00
2012-5-16,88,70,63,67,55,39,95,65,21,30.04,29.95,0,0,0,0.00
2012-5-17,87,72,59,60,48,38,90,50,21,30.13,29.98,8,1,9,0.00
2012-5-18,80,66,58,50,39,28,62,39,20,30.19,30.10,9,0,9,0.00
2012-5-19,87,64,52,43,37,30,68,39,16,30.22,30.13,8,0,8,0.00
2012-5-20,89,68,54,47,40,31,70,40,16,30.19,30.10,10,0,10,0.00
2012-5-21,94,74,64,53,45,36,58,39,17,30.10,29.92,6,0,6,0.00
2012-5-22,91,70,62,60,51,40,82,55,19,29.98,29.86,6,0,7,0.20
2012-5-23,84,68,62,63,52,42,92,61,25,30.01,29.89,0,0,0,0.16
2012-5-24,90,70,62,62,53,42,90,60,20,30.13,30.01,0,0,0,0.00
2012-5-25,96,74,62,63,52,38,87,52,17,30.22,30.10,0,0,0,0.00
2012-5-26,93,75,66,65,52,40,89,51,18,30.22,30.13,9,0,9,0.00
2012-5-27,93,75,63,60,51,40,77,48,19,30.22,30.13,8,0,8,0.00
2012-5-28,94,77,68,65,54,42,82,50,18,30.16,30.04,6,0,6,0.00
2012-5-29,95,76,69,64,55,41,83,52,17,30.10,29.89,8,0,8,0.08
2012-5-30,90,72,67,65,58,38,87,68,18,29.92,29.83,6,0,6,0.00
2012-5-31,98,80,62,54,42,30,71,31,11,29.98,29.86,8,0,8,0.00
2012-6-1,89,71,62,58,51,40,82,51,21,29.95,29.75,8,0,8,0.00
2012-6-2,82,63,54,56,41,30,84,50,19,29.98,29.86,6,0,6,0.12
2012-6-3,87,66,50,44,38,32,73,40,16,30.01,29.89,9,0,9,0.00
2012-6-4,88,71,60,48,40,32,64,37,16,29.89,29.75,5,0,5,0.04
2012-6-5,81,66,59,56,42,32,84,45,20,29.98,29.80,9,0,9,0.00
2012-6-6,70,61,55,52,44,37,84,55,32,30.10,29.95,7,0,7,0.12
2012-6-7,89,66,54,54,44,32,84,52,15,30.13,30.07,5,0,6,0.00
2012-6-8,94,70,54,51,40,26,81,42,11,30.13,30.04,5,0,5,0.00
2012-6-9,96,74,57,49,42,31,73,37,11,30.16,30.07,7,0,9,0.00
2012-6-10,90,75,62,52,43,32,62,35,15,30.22,30.13,6,0,6,0.00
2012-6-11,90,74,70,66,55,42,85,54,24,30.22,30.07,10,0,10,0.04
2012-6-12,93,74,68,66,59,46,87,64,21,30.10,29.92,6,0,6,0.24
2012-6-13,93,75,65,69,51,35,90,50,15,30.10,29.95,8,0,8,0.08
2012-6-14,89,70,58,50,42,36,60,38,18,30.25,30.10,10,0,10,0.00
2012-6-15,88,71,61,58,44,34,81,43,18,30.31,30.22,9,0,9,0.00
2012-6-16,90,69,56,47,38,29,65,36,13,30.37,30.22,10,0,10,0.00
2012-6-17,89,70,56,50,41,34,67,39,18,30.25,30.10,6,0,6,0.04
2012-6-18,94,76,66,53,43,37,55,33,17,30.16,30.10,8,0,8,0.00
2012-6-19,99,78,67,54,48,40,60,38,16,30.22,30.16,8,0,8,0.00
2012-6-20,102,81,68,61,50,38,73,40,12,30.25,30.13,8,0,8,0.00
2012-6-21,102,82,70,58,50,33,64,37,10,30.13,29.98,7,0,7,0.00
2012-6-22,100,77,69,68,55,38,90,55,14,30.01,29.92,11,0,11,1.22
2012-6-23,93,76,68,69,55,41,91,56,19,30.07,0.00,5,0,6,0.00
2012-6-24,98,76,66,66,55,39,90,57,16,30.00,0.00,9,0,9,0.00
2012-6-25,100,80,67,65,52,38,90,44,15,29.91,29.67,6,0,6,0.00
2012-6-26,88,71,58,41,33,24,51,26,13,29.91,29.76,13,1,13,0.00
2012-6-27,94,72,53,50,38,27,86,37,11,29.97,29.85,10,0,10,0.00
2012-6-28,102,79,58,52,41,31,78,33,10,30.00,29.85,8,0,8,0.00
2012-6-29,109,88,68,58,46,39,50,26,11,29.91,29.73,10,0,10,0.00
2012-6-30,107,86,68,56,46,38,54,28,11,29.88,29.82,6,0,6,0.00
2012-7-1,106,84,71,58,46,38,54,29,13,30.00,29.85,6,0,6,0.00
2012-7-2,102,82,66,63,48,36,87,37,12,30.06,29.91,10,0,10,0.00
2012-7-3,104,82,69,68,55,38,86,48,12,30.00,29.91,8,0,8,0.00
2012-7-4,105,84,69,67,52,38,88,43,12,29.97,29.88,8,0,8,0.00
2012-7-5,106,86,70,65,51,39,83,36,12,29.94,29.85,6,0,6,0.00
2012-7-6,105,84,67,60,50,40,78,35,14,29.94,29.88,10,1,10,0.00
2012-7-7,107,87,72,67,53,39,83,39,11,29.97,29.88,7,0,7,0.00
2012-7-8,108,89,73,60,50,36,61,30,11,29.94,29.79,6,0,6,0.00
2012-7-9,103,85,71,63,50,42,76,35,15,29.97,29.82,15,1,15,0.04
2012-7-10,88,76,70,71,57,41,90,58,22,30.03,29.91,11,1,11,0.00
2012-7-11,83,70,64,65,57,46,85,63,34,30.12,30.00,11,0,11,0.59
2012-7-12,88,73,64,57,51,41,72,48,21,30.15,30.06,11,1,11,0.00
2012-7-13,96,78,69,66,56,43,86,52,18,30.18,30.09,10,1,10,0.00
2012-7-14,96,77,72,76,63,46,86,65,20,30.18,30.09,8,0,8,0.31
2012-7-15,99,81,69,68,57,43,89,51,17,30.18,30.03,8,0,8,0.00
2012-7-16,103,82,72,70,57,42,91,51,14,30.06,29.88,6,0,6,0.00
2012-7-17,106,85,69,68,53,38,91,43,12,29.97,29.85,6,0,6,0.00
2012-7-18,103,85,72,69,53,42,89,39,15,29.97,29.85,10,0,10,0.00
2012-7-19,100,81,72,71,58,44,85,52,17,30.00,29.91,8,0,8,0.35
2012-7-20,99,79,70,71,61,44,91,62,17,29.94,29.85,8,0,8,0.08
2012-7-21,100,80,71,70,61,45,92,61,17,30.06,29.91,8,0,8,0.00
2012-7-22,87,76,70,70,62,51,91,65,30,30.15,30.03,7,0,7,0.00
2012-7-23,74,72,71,71,69,68,93,88,84,30.12,30.09,0,0,0,0.00
2012-7-25,98,84,71,66,53,43,83,38,17,29.94,29.88,8,0,8,0.00
2012-7-26,105,87,73,72,55,42,91,42,14,29.88,29.76,9,0,9,0.00
2012-7-27,105,84,72,68,55,43,87,44,15,29.94,29.82,10,0,10,0.00
2012-7-28,104,83,69,72,57,38,93,53,12,29.97,29.85,7,0,7,0.00
2012-7-29,103,82,67,66,50,31,93,43,10,30.00,29.91,8,0,8,0.00
2012-7-30,97,79,68,66,54,41,88,49,17,30.00,29.91,10,1,12,0.00
2012-7-31,98,78,66,68,55,40,92,55,17,29.97,29.85,8,0,8,0.00
2012-8-1,106,83,70,68,53,32,89,44,11,29.91,29.79,7,0,7,0.00
2012-8-2,103,84,68,61,50,38,77,35,12,29.91,29.82,10,0,10,0.00
2012-8-3,101,81,68,66,53,43,89,43,16,30.06,29.88,9,0,9,0.00
2012-8-4,100,83,70,64,53,42,77,39,16,30.18,30.03,11,1,11,0.00
2012-8-5,100,83,72,66,54,43,82,41,17,30.21,30.09,10,1,10,0.00
2012-8-6,96,81,71,70,57,43,93,51,19,30.12,30.00,9,0,9,1.50
2012-8-7,90,77,72,72,62,50,95,66,27,30.03,29.94,6,0,6,0.04
2012-8-8,101,77,66,69,58,38,89,59,16,30.00,29.94,13,0,13,0.79
2012-8-9,97,79,66,69,58,45,96,57,18,29.97,29.85,8,0,8,0.00
2012-8-10,91,76,69,69,59,48,96,61,25,29.91,29.79,10,0,10,0.67
2012-8-11,86,73,67,69,62,50,92,72,32,29.94,29.82,6,0,6,0.55
2012-8-12,97,77,63,65,52,36,94,52,14,30.00,29.91,7,0,7,0.00
2012-8-13,98,77,63,62,51,38,89,50,16,30.03,29.94,9,0,9,0.00
2012-8-14,102,79,65,64,52,39,90,47,13,29.94,29.82,7,0,7,0.00
2012-8-15,99,76,67,67,54,41,93,53,16,29.94,29.85,6,0,6,0.00
2012-8-16,98,77,64,63,50,34,87,49,13,30.00,29.91,8,0,8,0.00
2012-8-17,102,77,63,66,54,39,93,55,15,29.97,29.82,7,0,7,0.00
2012-8-18,95,75,66,70,57,42,96,61,17,29.91,29.82,8,0,8,0.00
2012-8-19,72,68,66,66,63,56,91,82,61,29.88,29.82,8,0,8,1.22
2012-8-20,89,71,65,66,56,39,93,65,20,29.97,29.82,8,0,8,0.00
2012-8-21,98,75,62,62,52,38,91,53,16,30.03,29.94,7,0,7,0.00
2012-8-22,89,72,66,64,56,43,96,64,21,30.09,30.00,9,1,9,0.51
2012-8-23,93,75,64,65,54,38,97,58,17,30.12,30.03,9,0,9,0.04
2012-8-24,92,73,63,63,49,33,92,51,15,30.12,30.06,10,1,10,0.00
2012-8-25,91,69,60,59,49,36,86,54,18,30.12,30.06,11,0,11,0.00
2012-8-26,96,74,60,63,50,39,91,49,17,30.15,30.06,8,0,8,0.00
2012-8-27,100,78,63,67,54,40,93,53,16,30.15,30.00,6,0,6,0.00
2012-8-28,101,81,70,70,59,42,96,58,15,30.00,29.88,6,0,6,3.46
2012-8-29,95,77,69,73,60,44,97,66,19,30.00,29.88,10,1,10,0.00
2012-8-30,97,79,67,70,57,42,93,57,17,30.12,29.94,8,0,8,0.00
2012-8-31,103,82,72,71,59,44,93,53,15,30.18,30.06,3,0,3,0.00
2012-9-1,105,83,72,72,60,42,96,57,14,30.12,30.00,8,0,8,0.00
2012-9-2,103,82,70,74,60,44,94,60,15,30.03,29.91,10,0,10,1.14
2012-9-3,94,75,68,71,64,52,95,74,25,30.03,29.94,10,0,10,0.83
2012-9-4,95,76,72,72,63,47,97,69,21,29.97,29.88,8,0,8,0.55
2012-9-5,94,77,71,72,61,46,97,65,20,29.91,29.82,8,0,8,0.00
2012-9-6,92,77,69,69,61,52,91,61,28,29.94,29.85,4,0,5,0.24
2012-9-7,98,79,67,69,58,42,98,60,17,29.94,29.82,6,0,6,0.00
2012-9-8,98,75,67,72,61,46,96,69,18,29.85,29.67,14,1,14,0.39
2012-9-9,94,71,59,57,40,27,89,39,11,29.97,29.79,10,0,10,0.00
2012-9-10,90,68,54,55,42,27,90,49,12,30.12,29.97,10,0,10,0.00
2012-9-11,91,68,52,55,43,27,94,53,12,30.27,30.12,7,0,7,0.00
2012-9-12,91,68,54,56,45,32,88,53,15,30.32,30.24,8,0,8,0.00
2012-9-13,88,67,51,53,43,28,89,52,15,30.32,30.21,9,0,9,0.00
2012-9-14,94,69,56,61,49,36,91,57,17,30.24,30.12,9,0,9,0.00
2012-9-15,92,71,58,65,50,38,98,57,18,30.18,30.06,13,1,13,0.00
2012-9-16,70,63,59,59,50,39,92,64,35,30.15,30.06,8,0,8,0.75
2012-9-17,79,68,61,68,56,46,93,69,32,30.09,29.88,5,0,5,0.04
2012-9-18,78,71,67,68,60,52,94,69,42,29.88,29.67,13,1,13,0.98
2012-9-19,83,65,56,65,47,30,98,59,19,30.09,29.82,11,0,11,0.00
2012-9-20,90,66,52,56,45,28,92,57,13,30.12,30.00,6,0,6,0.00
2012-9-21,93,69,55,61,50,37,98,61,17,30.06,29.94,8,0,8,0.00
2012-9-22,93,73,63,63,49,37,88,49,17,29.97,29.85,8,0,8,0.12
2012-9-23,87,66,50,61,39,18,97,52,11,30.12,29.97,8,0,8,0.00
2012-9-24,85,60,44,41,30,17,76,39,11,30.18,30.09,10,0,10,0.00
2012-9-25,84,62,44,55,42,32,98,58,19,30.18,30.09,8,0,8,0.00
2012-9-26,92,70,56,61,47,34,90,55,14,30.15,30.09,7,0,7,0.00
2012-9-27,97,72,56,62,51,38,98,61,14,30.15,30.03,6,0,6,0.00
2012-9-28,95,69,58,66,55,38,97,68,17,30.06,29.97,5,0,5,0.12
2012-9-29,67,63,60,66,61,55,98,93,80,29.97,29.85,10,0,10,0.63
2012-9-30,87,64,56,59,50,32,98,69,16,29.91,29.82,6,0,6,0.00
2012-10-1,63,60,59,61,55,42,98,84,50,29.88,29.82,12,0,12,0.04
2012-10-2,92,71,61,69,61,50,98,77,28,29.91,29.76,6,0,6,0.39
2012-10-3,96,75,68,73,56,38,98,60,16,30.15,29.91,6,0,6,0.00
2012-10-4,92,71,60,60,48,32,96,51,15,30.18,30.12,6,0,6,0.00
2012-10-5,93,69,53,62,46,27,98,59,12,30.15,29.97,4,0,4,0.00
2012-10-6,90,68,56,60,46,34,97,53,17,29.97,29.85,10,0,10,0.04
2012-10-7,57,52,48,51,42,31,90,69,39,30.09,29.94,13,1,13,0.59
2012-10-8,50,47,45,47,38,30,91,73,49,30.15,30.06,10,0,10,0.08
2012-10-9,63,52,45,50,39,29,91,65,31,30.12,30.00,8,0,8,0.04
2012-10-10,83,61,48,51,40,29,95,53,17,30.06,29.91,7,0,7,0.00
2012-10-11,78,56,40,51,34,18,98,57,13,30.24,30.06,8,0,8,0.00
2012-10-12,86,59,44,57,37,20,98,59,11,30.27,30.09,15,0,15,0.00
2012-10-13,76,55,40,40,30,19,83,45,13,30.38,30.24,10,0,10,0.00
2012-10-14,83,61,44,53,40,29,98,54,16,30.24,29.97,10,0,10,0.00
2012-10-15,82,64,49,61,44,27,90,52,22,29.97,29.67,8,0,8,0.67
2012-10-16,82,57,41,50,33,18,98,52,12,29.91,29.82,6,0,6,0.00
2012-10-17,82,58,44,50,34,18,91,52,12,29.94,29.85,9,0,9,0.00
2012-10-18,84,61,46,62,44,32,97,59,20,29.88,29.73,10,0,10,0.59
2012-10-19,86,64,48,62,41,18,98,55,13,29.73,29.65,10,0,10,0.00
2012-10-20,84,58,44,47,31,18,92,47,11,29.91,29.70,7,0,7,0.00
2012-10-21,80,55,39,46,31,17,94,52,12,30.09,29.91,7,0,7,0.00
2012-10-22,90,60,41,52,36,20,98,58,10,30.15,30.06,4,0,4,0.00
2012-10-23,89,63,47,55,41,26,98,58,13,30.12,30.03,8,0,8,0.00
2012-10-24,96,66,50,59,43,27,98,58,11,30.12,30.03,6,0,6,0.00
2012-10-25,91,66,49,56,43,27,98,57,12,30.12,30.03,8,0,8,0.00
2012-10-26,68,59,53,58,50,39,98,76,35,30.09,29.91,9,0,9,0.00
2012-10-27,77,64,59,58,42,30,89,50,21,29.91,29.70,15,1,15,0.00
2012-10-28,75,61,52,36,29,21,50,31,16,29.70,29.56,12,1,12,0.00
2012-10-29,53,47,42,25,19,14,44,32,27,29.59,29.26,17,1,17,0.00
2012-10-30,52,45,40,17,13,10,38,27,21,29.50,29.23,15,2,15,0.00
2012-10-31,62,45,34,22,17,13,57,33,19,29.67,29.50,8,0,8,0.00
2012-11-1,66,48,37,30,19,11,76,34,15,29.76,29.67,11,0,11,0.00
2012-11-2,72,47,33,28,18,10,77,35,14,29.88,29.73,8,0,8,0.00
2012-11-3,73,51,36,24,17,11,55,28,14,30.03,29.88,6,0,6,0.00
2012-11-4,68,50,42,27,21,15,51,32,17,30.00,29.88,10,0,10,0.00
2012-11-5,68,50,32,38,18,6,84,34,14,30.00,29.91,9,0,9,0.00
2012-11-6,44,37,31,29,19,13,85,50,30,30.03,29.85,10,0,10,0.00
2012-11-7,68,44,32,28,18,9,77,39,15,29.85,29.73,9,0,9,0.00
2012-11-8,76,47,32,36,19,3,98,41,12,30.03,29.85,8,0,8,0.00
2012-11-9,78,48,28,33,19,7,77,37,13,30.15,30.03,8,0,8,0.00
2012-11-10,82,52,34,38,24,12,90,45,12,30.29,30.15,5,0,6,0.00
2012-11-11,81,57,37,41,28,20,76,40,12,30.38,30.27,12,1,12,0.00
2012-11-12,66,60,53,56,47,38,91,64,35,30.32,30.09,10,0,10,0.04
2012-11-13,64,48,33,49,28,6,90,52,16,30.32,30.09,13,0,13,0.12
2012-11-14,55,41,31,37,14,7,92,37,18,30.38,30.24,16,2,16,0.00
2012-11-15,46,40,33,34,19,12,92,45,28,30.27,30.15,8,0,9,0.00
2012-11-16,66,45,29,40,24,9,98,58,15,30.29,30.15,10,1,10,0.00
2012-11-17,66,45,29,28,16,5,87,39,14,30.41,30.29,14,2,14,0.00
2012-11-18,60,50,41,26,22,11,40,34,25,30.41,30.29,17,3,17,0.00
2012-11-19,63,50,39,38,27,23,91,44,25,30.29,30.12,13,1,13,0.00
2012-11-20,67,46,35,42,31,22,98,64,20,30.12,29.97,5,0,5,0.00
2012-11-21,71,46,32,41,25,10,98,55,14,30.09,30.00,11,0,11,0.00
2012-11-22,71,45,31,33,20,6,90,45,14,30.18,30.06,13,1,13,0.00
2012-11-23,74,49,29,34,21,11,90,42,13,30.06,29.79,8,0,8,0.00
2012-11-24,60,42,26,15,8,-3,43,25,14,30.03,29.82,9,0,9,0.00
2012-11-25,58,36,19,12,7,-1,69,33,14,30.06,0.00,9,1,9,0.00
2012-11-26,75,48,26,21,13,5,53,27,13,0.00,0.00,6,0,6,0.00
2012-11-27,53,46,37,42,27,12,84,51,26,0.00,0.00,8,0,8,0.04
2012-11-28,62,42,27,34,21,5,95,52,15,0.00,0.00,6,0,6,0.00
2012-11-29,65,39,23,30,15,7,80,44,13,0.00,0.00,6,0,6,0.00
2012-11-30,70,44,30,30,19,9,87,43,15,30.38,0.00,8,0,11,0.00
2012-12-1,77,48,32,42,25,14,97,52,13,30.41,30.29,6,0,6,0.00
2012-12-2,74,52,36,50,33,27,93,56,21,30.38,30.26,11,1,11,0.00
2012-12-3,85,62,51,46,35,24,79,42,13,30.32,30.23,6,0,8,0.00
2012-12-4,62,53,49,50,42,30,97,69,31,30.29,30.20,6,0,6,0.00
2012-12-5,66,55,34,43,30,14,54,39,19,30.23,30.14,8,0,8,0.00
2012-12-6,61,46,33,18,15,9,52,30,16,30.35,30.23,11,1,11,0.00
2012-12-7,51,47,45,46,29,17,92,53,30,30.23,30.05,0,0,0,0.24
2012-12-8,71,54,48,49,43,30,98,73,23,30.08,29.99,5,0,5,0.00
2012-12-9,78,60,50,58,48,34,98,67,22,30.14,30.02,4,0,4,0.00
2012-12-10,67,62,57,58,47,38,97,61,36,30.02,29.73,10,1,10,0.00
2012-12-11,63,52,40,42,20,10,47,30,19,30.17,29.76,10,0,10,0.00
2012-12-12,49,43,38,15,12,10,36,29,21,30.35,30.17,16,3,16,0.00
2012-12-13,63,41,25,13,9,-1,57,28,14,30.44,30.29,13,2,13,0.00
2012-12-14,70,39,22,30,14,4,81,42,13,30.38,30.26,5,0,5,0.00
2012-12-15,69,46,32,24,16,6,64,35,13,30.26,30.08,8,0,8,0.00
2012-12-16,55,51,45,53,40,17,94,69,30,30.08,29.93,6,0,6,0.28
2012-12-17,58,54,49,53,50,42,98,87,61,29.93,29.67,10,0,10,0.16
2012-12-18,66,51,34,53,32,12,98,55,16,29.93,29.67,10,1,10,0.00
2012-12-19,70,47,30,31,20,12,76,40,15,30.14,29.91,10,0,10,0.00
2012-12-20,59,46,35,59,32,19,98,59,25,30.17,29.52,17,1,17,0.31
2012-12-21,50,40,35,35,10,2,60,29,20,29.85,29.55,16,4,16,0.00
2012-12-22,60,41,33,11,4,-3,30,21,14,30.11,29.85,11,1,11,0.00
2012-12-23,57,40,23,10,5,-3,54,26,15,30.14,30.02,7,0,7,0.00
2012-12-24,46,43,39,44,30,4,94,64,20,30.05,29.91,8,0,8,0.31
2012-12-25,64,48,42,41,32,21,92,59,23,30.11,29.93,10,1,10,0.00
2012-12-26,44,40,35,37,31,23,98,72,47,30.08,29.52,23,3,23,1.14
2012-12-27,57,40,28,28,14,6,70,36,17,30.11,29.64,10,1,10,0.00
2012-12-28,51,35,24,19,13,7,63,42,21,30.17,29.99,5,0,5,0.00
2012-12-29,57,41,34,35,20,6,87,47,24,29.99,29.70,10,1,10,0.08
2012-12-30,57,37,24,12,5,-3,48,27,15,30.38,29.99,8,1,8,0.00
2012-12-31,54,38,22,16,10,4,66,35,18,30.35,30.11,9,0,9,0.00
2013-1-1,49,46,41,46,29,11,92,56,25,30.11,29.93,8,0,8,0.24